createdAt,value
2023-05-10T00:00:54.142Z,51.63
2023-05-10T00:03:20.497Z,51.68
2023-05-10T00:05:46.884Z,51.86
2023-05-10T00:08:13.155Z,51.81
2023-05-10T00:10:40.578Z,52.16
2023-05-10T00:13:06.909Z,52.02
2023-05-10T00:15:33.295Z,51.95
2023-05-10T00:17:59.591Z,52.04
2023-05-10T00:20:25.996Z,52.22
2023-05-10T00:22:52.399Z,52.32
2023-05-10T00:25:18.719Z,52.44
2023-05-10T00:27:45.008Z,52.48
2023-05-10T00:30:11.398Z,52.47
2023-05-10T00:32:37.770Z,52.50
2023-05-10T00:35:04.870Z,52.60
2023-05-10T00:37:31.180Z,52.79
2023-05-10T00:39:57.431Z,52.87
2023-05-10T00:42:23.819Z,52.73
2023-05-10T00:44:52.743Z,52.90
2023-05-10T00:47:19.045Z,52.90
2023-05-10T00:49:46.143Z,52.69
2023-05-10T00:52:12.600Z,52.89
2023-05-10T00:54:38.918Z,52.99
2023-05-10T00:57:05.240Z,52.81
2023-05-10T00:59:31.821Z,52.92
2023-05-10T01:01:58.618Z,52.90
2023-05-10T01:06:24.701Z,52.92
2023-05-10T01:08:51.918Z,53.28
2023-05-10T01:11:18.237Z,52.87
2023-05-10T01:13:52.853Z,52.98
2023-05-10T01:16:21.470Z,53.19
2023-05-10T01:18:49.865Z,53.42
2023-05-10T01:21:28.148Z,53.66
2023-05-10T01:23:54.394Z,53.41
2023-05-10T01:27:08.051Z,53.53
2023-05-10T01:29:37.124Z,53.59
2023-05-10T01:32:11.727Z,53.61
2023-05-10T01:34:48.113Z,53.73
2023-05-10T01:37:21.439Z,53.72
2023-05-10T01:40:20.415Z,53.78
2023-05-10T01:42:53.354Z,53.68
2023-05-10T01:46:12.234Z,53.85
2023-05-10T01:48:47.302Z,53.82
2023-05-10T01:51:22.349Z,53.89
2023-05-10T01:53:54.422Z,53.93
2023-05-10T01:56:24.340Z,53.78
2023-05-10T01:58:53.346Z,54.05
2023-05-10T02:01:22.007Z,54.07
2023-05-10T02:03:51.731Z,54.16
2023-05-10T02:06:21.182Z,54.20
2023-05-10T02:08:49.581Z,54.03
2023-05-10T02:11:18.789Z,54.03
2023-05-10T02:13:47.679Z,54.15
2023-05-10T02:16:16.518Z,54.27
2023-05-10T02:18:43.535Z,54.24
2023-05-10T02:21:11.200Z,54.39
2023-05-10T02:23:39.965Z,54.74
2023-05-10T02:26:07.311Z,54.64
2023-05-10T02:28:35.893Z,54.57
2023-05-10T02:31:02.932Z,54.65
2023-05-10T02:33:31.647Z,54.80
2023-05-10T02:35:58.892Z,54.60
2023-05-10T02:38:29.436Z,54.78
2023-05-10T02:40:57.844Z,54.92
